Time;durP1;ratioP1;P1;durP2;ratioP2;P2;SDS_P1;SDS_P2;PMS_P1;PMS_P2;Temp;Humidity;BMP_temperature;BMP_pressure;BME280_temperature;BME280_humidity;BME280_pressure;Samples;Min_cycle;Max_cycle;Signal;HPM_P1;HPM_P2
2023/08/13 00:01:08;;;;;;;;;3.00;2.00;;;;;23.14;53.91;101683.28;2026190;28;2752447;-73
2023/08/13 00:02:19;;;;;;;;;3.33;2.00;;;;;23.18;53.59;101685.75;2021470;28;2736827;-73
2023/08/13 00:03:31;;;;;;;;;4.25;3.00;;;;;23.18;53.68;101688.44;2034276;28;2737800;-74
2023/08/13 00:04:42;;;;;;;;;6.00;4.00;;;;;23.18;53.59;101685.75;2008389;28;2746122;-74
2023/08/13 00:05:52;;;;;;;;;6.00;2.00;;;;;23.16;53.67;101683.19;2012152;28;3458612;-74
2023/08/13 00:07:04;;;;;;;;;4.50;2.00;;;;;23.16;53.88;101691.25;2033728;28;2737801;-74
2023/08/13 00:08:15;;;;;;;;;4.33;4.00;;;;;23.16;53.36;101684.03;2009207;28;2750395;-74
2023/08/13 00:09:26;;;;;;;;;3.00;3.00;;;;;23.16;53.17;101684.03;2026353;28;2735722;-74
2023/08/13 00:10:38;;;;;;;;;4.00;3.00;;;;;23.18;53.52;101685.75;2009771;28;2748253;-74
2023/08/13 00:11:48;;;;;;;;;5.33;3.00;;;;;23.19;53.39;101684.78;2009830;28;2738819;-74
2023/08/13 00:12:59;;;;;;;;;4.33;3.00;;;;;23.19;53.53;101677.59;2023437;27;2754509;-74
2023/08/13 00:14:11;;;;;;;;;3.00;2.50;;;;;23.21;53.44;101683.69;2033382;28;2735675;-74
2023/08/13 00:15:22;;;;;;;;;2.33;2.33;;;;;23.22;53.32;101687.22;2002486;28;2743078;-74
2023/08/13 00:16:33;;;;;;;;;3.00;3.00;;;;;23.23;53.42;101681.78;2022977;28;2748274;-74
2023/08/13 00:17:45;;;;;;;;;2.00;2.00;;;;;23.25;53.96;101689.69;2033707;28;2736752;-74
2023/08/13 00:18:55;;;;;;;;;2.00;2.00;;;;;23.24;53.02;101678.13;2009490;28;2746227;-74
2023/08/13 00:20:07;;;;;;;;;2.00;2.00;;;;;23.27;53.99;101679.72;2020257;28;2732557;-75
2023/08/13 00:21:17;;;;;;;;;5.33;2.67;;;;;23.29;53.07;101676.91;1976153;28;3455480;-75
2023/08/13 00:22:29;;;;;;;;;2.00;2.00;;;;;23.31;53.24;101675.00;2039593;28;1813821;-75
2023/08/13 00:23:39;;;;;;;;;3.00;3.00;;;;;23.32;53.21;101677.56;1984464;28;2744161;-75
2023/08/13 00:24:55;;;;;;;;;5.00;3.00;;;;;23.34;53.48;101682.81;2024704;28;2752414;-75
2023/08/13 00:26:05;;;;;;;;;7.00;4.00;;;;;23.35;52.91;101679.16;2005372;28;3470050;-75
2023/08/13 00:27:16;;;;;;;;;2.00;1.67;;;;;23.37;53.58;101675.41;2033685;28;2744019;-75
2023/08/13 00:28:26;;;;;;;;;2.00;2.00;;;;;23.38;53.73;101673.59;2007641;27;2748233;-75
2023/08/13 00:29:40;;;;;;;;;3.00;2.00;;;;;23.42;53.20;101674.19;2025473;28;2738847;-75
2023/08/13 00:30:54;;;;;;;;;3.33;3.33;;;;;23.43;53.74;101668.75;2034272;28;2746107;-75
2023/08/13 00:32:05;;;;;;;;;3.67;3.00;;;;;23.46;53.65;101681.03;1987615;28;2746201;-75
2023/08/13 00:33:16;;;;;;;;;4.00;3.00;;;;;23.46;53.29;101670.31;2023669;27;2739916;-75
2023/08/13 00:34:26;;;;;;;;;4.00;3.00;;;;;23.48;52.79;101665.72;1979583;28;2742005;-75
2023/08/13 00:35:37;;;;;;;;;4.00;3.67;;;;;23.49;53.32;101662.06;2033422;28;2739856;-75
2023/08/13 00:36:47;;;;;;;;;7.00;5.00;;;;;23.51;52.66;101665.50;1985201;28;2746167;-75
2023/08/13 00:37:58;;;;;;;;;3.00;3.00;;;;;23.52;52.49;101669.91;2025596;28;2746157;-75
2023/08/13 00:39:09;;;;;;;;;3.00;2.00;;;;;23.54;53.04;101667.09;2020675;27;3466904;-75
2023/08/13 00:40:20;;;;;;;;;3.33;3.00;;;;;23.55;53.15;101668.81;2020815;28;2747291;-75
2023/08/13 00:41:31;;;;;;;;;5.00;3.00;;;;;23.54;53.24;101656.38;2021475;28;2751442;-75
2023/08/13 00:42:42;;;;;;;;;2.67;2.67;;;;;23.56;53.21;101662.47;2022451;28;2752441;-75
2023/08/13 00:43:53;;;;;;;;;2.00;2.00;;;;;23.59;52.79;101665.78;2008926;28;2747275;-75
2023/08/13 00:45:07;;;;;;;;;3.33;2.00;;;;;23.59;53.10;101664.94;2028660;27;2725292;-75
2023/08/13 00:46:17;;;;;;;;;3.00;3.00;;;;;23.60;53.06;101662.16;1984884;28;2737781;-75
2023/08/13 00:47:28;;;;;;;;;5.00;3.00;;;;;23.62;53.11;101662.03;2023361;28;2745052;-76
2023/08/13 00:48:40;;;;;;;;;3.00;2.00;;;;;23.63;52.92;101657.53;2017934;27;2750355;-76
2023/08/13 00:49:50;;;;;;;;;3.67;2.67;;;;;23.63;52.79;101660.22;2010694;28;2746116;-76
2023/08/13 00:51:01;;;;;;;;;3.00;2.00;;;;;23.64;52.51;101661.91;2027260;28;2751894;-75
2023/08/13 00:52:12;;;;;;;;;4.00;3.00;;;;;23.64;52.97;101661.91;2031069;27;2746199;-75
2023/08/13 00:53:23;;;;;;;;;3.00;2.00;;;;;23.65;53.38;101660.94;2022740;28;2737869;-77
2023/08/13 00:54:35;;;;;;;;;5.00;3.33;;;;;23.67;52.45;101661.69;2016771;27;2740237;-78
2023/08/13 00:55:45;;;;;;;;;3.33;2.00;;;;;23.65;52.47;101652.91;2010418;28;2754503;-79
2023/08/13 00:56:56;;;;;;;;;3.00;3.00;;;;;23.64;52.40;101659.22;2021024;28;2745052;-81
2023/08/13 00:58:08;;;;;;;;;1.75;1.75;;;;;23.62;52.90;101647.75;2035173;28;2734646;-76
2023/08/13 00:59:20;;;;;;;;;3.00;3.00;;;;;23.59;52.59;101656.88;2012433;28;2737905;-76
2023/08/13 01:00:34;;;;;;;;;3.83;2.83;;;;;23.58;52.59;101658.69;2035893;28;2738848;-76
2023/08/13 01:01:44;;;;;;;;;2.00;2.00;;;;;23.57;52.10;101662.38;1974309;28;2744501;-76
2023/08/13 01:02:56;;;;;;;;;6.00;3.00;;;;;23.57;52.62;101656.16;2021750;28;2748292;-76
2023/08/13 01:04:06;;;;;;;;;3.00;3.00;;;;;23.56;53.04;101655.28;2010939;28;2733591;-76
2023/08/13 01:05:17;;;;;;;;;4.67;2.67;;;;;23.58;52.65;101656.03;2035170;28;2736712;-76
2023/08/13 01:06:42;;;;;;;;;5.67;2.00;;;;;23.60;53.03;101653.25;2000454;27;2747176;-76
2023/08/13 01:08:21;;;;;;;;;5.00;2.00;;;;;23.60;52.62;101648.75;2004748;27;2755029;-76
2023/08/13 01:10:04;;;;;;;;;2.00;2.00;;;;;23.61;53.38;101652.25;1994773;28;2748172;-76
2023/08/13 01:11:44;;;;;;;;;3.00;2.00;;;;;23.62;52.24;101655.81;2006300;28;3463790;-78
2023/08/13 01:13:18;;;;;;;;;3.00;2.00;;;;;23.62;52.41;101653.13;2009673;28;2738898;-75
2023/08/13 01:14:49;;;;;;;;;4.00;3.17;;;;;23.62;52.54;101658.47;2036397;28;2740891;-75
2023/08/13 01:16:02;;;;;;;;;5.00;2.00;;;;;23.61;52.52;101652.25;1988414;28;2751319;-75
2023/08/13 01:17:17;;;;;;;;;3.00;2.00;;;;;23.60;52.66;101656.78;2009868;28;2741970;-75
2023/08/13 01:18:29;;;;;;;;;3.00;2.00;;;;;23.60;53.13;101654.09;2010467;28;2746183;-75
2023/08/13 01:19:42;;;;;;;;;4.50;3.00;;;;;23.62;52.14;101653.13;2035632;28;2734683;-75
2023/08/13 01:20:52;;;;;;;;;6.00;2.67;;;;;23.63;52.85;101652.16;1989675;28;2734670;-75
2023/08/13 01:22:03;;;;;;;;;2.33;2.33;;;;;23.62;52.41;101655.81;2027580;27;2746197;-75
2023/08/13 01:23:14;;;;;;;;;2.00;1.67;;;;;23.62;52.75;101656.66;2022814;28;2751386;-76
2023/08/13 01:24:25;;;;;;;;;4.00;3.00;;;;;23.63;52.79;101665.56;2014061;27;2742062;-75
2023/08/13 01:25:38;;;;;;;;;2.00;2.00;;;;;23.63;52.26;101661.03;2027065;28;2739930;-75
2023/08/13 01:26:54;;;;;;;;;6.00;3.00;;;;;23.64;52.39;101656.53;1982853;27;2744125;-75
2023/08/13 01:28:17;;;;;;;;;2.67;2.67;;;;;23.65;53.11;101658.25;2000755;28;2750269;-75
2023/08/13 01:29:41;;;;;;;;;2.00;2.00;;;;;23.66;52.31;101659.94;2010511;28;2742012;-75
2023/08/13 01:30:56;;;;;;;;;5.00;3.00;;;;;23.66;52.70;101652.78;2011010;28;2740232;-77
2023/08/13 01:32:12;;;;;;;;;3.00;2.67;;;;;23.67;53.11;101648.25;2009305;28;2754621;-76
2023/08/13 01:33:30;;;;;;;;;4.00;2.00;;;;;23.68;52.43;101653.50;2007677;28;2748213;-76
2023/08/13 01:34:44;;;;;;;;;3.83;2.50;;;;;23.68;52.91;101652.66;2035031;28;2731532;-76
2023/08/13 01:35:58;;;;;;;;;4.00;2.33;;;;;23.69;52.04;101654.38;1988085;28;2754540;-77
2023/08/13 01:37:09;;;;;;;;;2.00;2.00;;;;;23.68;53.03;101655.34;2010100;28;3466923;-77
2023/08/13 01:38:21;;;;;;;;;3.33;3.00;;;;;23.69;52.18;101649.88;2025936;27;2746219;-77
2023/08/13 01:39:31;;;;;;;;;4.00;3.00;;;;;23.70;52.87;101640.00;2010628;28;2753418;-77
2023/08/13 01:40:42;;;;;;;;;2.33;1.33;;;;;23.70;52.36;101645.34;2020704;28;2733583;-77
2023/08/13 01:41:54;;;;;;;;;3.00;3.00;;;;;23.71;52.57;101653.28;2021560;28;2741032;-77
2023/08/13 01:43:05;;;;;;;;;3.00;2.67;;;;;23.70;52.38;101650.72;2009181;28;2746196;-77
2023/08/13 01:44:16;;;;;;;;;3.00;2.00;;;;;23.67;52.71;101645.56;2024851;28;2755054;-77
2023/08/13 01:45:27;;;;;;;;;3.00;2.67;;;;;23.67;52.98;101646.44;2021222;28;2754439;-77
2023/08/13 01:46:39;;;;;;;;;3.60;3.00;;;;;23.68;53.12;101647.31;2033181;28;2731509;-77
2023/08/13 01:47:50;;;;;;;;;3.67;2.67;;;;;23.69;52.76;101640.94;1985971;28;2754532;-76
2023/08/13 01:49:01;;;;;;;;;4.00;1.67;;;;;23.67;51.93;101640.22;2035301;28;2748193;-76
2023/08/13 01:50:12;;;;;;;;;6.33;3.00;;;;;23.63;53.10;101641.41;1987831;28;2742991;-76
2023/08/13 01:51:23;;;;;;;;;3.00;1.33;;;;;23.62;53.03;101639.69;2000870;27;2747252;-76
2023/08/13 01:52:34;;;;;;;;;2.33;2.00;;;;;23.60;52.30;101646.06;2013950;27;2739859;-76
2023/08/13 01:53:44;;;;;;;;;4.00;3.00;;;;;23.59;52.78;101648.84;1980864;28;2750300;-76
2023/08/13 01:54:55;;;;;;;;;3.67;2.00;;;;;23.54;52.69;101645.63;2023843;28;2744027;-76
2023/08/13 01:56:06;;;;;;;;;2.67;2.67;;;;;23.45;53.25;101647.16;2014636;28;2745130;-77
2023/08/13 01:57:17;;;;;;;;;2.00;2.00;;;;;23.42;53.31;101642.00;2015443;28;2744079;-77
2023/08/13 01:58:28;;;;;;;;;2.00;2.00;;;;;23.40;53.19;101643.94;2022382;27;2748252;-77
2023/08/13 01:59:39;;;;;;;;;3.25;3.00;;;;;23.35;52.81;101644.28;2032109;28;2741952;-76
2023/08/13 02:00:50;;;;;;;;;1.00;1.00;;;;;23.29;53.19;101645.59;1996020;28;2727371;-76
2023/08/13 02:02:01;;;;;;;;;3.00;2.00;;;;;23.24;53.12;101642.38;2018493;27;2748321;-74
2023/08/13 02:03:12;;;;;;;;;3.00;2.67;;;;;23.20;52.64;101647.13;2022818;27;2750378;-76
2023/08/13 02:04:23;;;;;;;;;2.33;1.33;;;;;23.14;53.13;101634.16;2033246;27;2733664;-76
2023/08/13 02:05:33;;;;;;;;;6.00;3.00;;;;;23.10;53.90;101640.72;1987818;27;2745267;-77
2023/08/13 02:06:44;;;;;;;;;3.00;1.00;;;;;23.06;53.50;101648.16;2030175;28;2721596;-76
2023/08/13 02:07:55;;;;;;;;;3.33;3.33;;;;;23.04;53.63;101650.06;1982869;28;3460699;-76
2023/08/13 02:09:08;;;;;;;;;2.83;2.00;;;;;23.02;53.51;101652.00;2035616;28;2734668;-77
2023/08/13 02:10:19;;;;;;;;;2.00;2.00;;;;;22.99;54.39;101644.19;1977866;28;2748205;-76
2023/08/13 02:11:30;;;;;;;;;2.00;2.00;;;;;22.98;53.39;101645.16;2015919;27;3460721;-76
2023/08/13 02:12:41;;;;;;;;;3.00;2.67;;;;;22.93;53.66;101645.50;2019597;28;2747167;-76
2023/08/13 02:13:51;;;;;;;;;5.00;2.00;;;;;22.90;54.08;101649.25;2022853;28;3465854;-77
2023/08/13 02:15:02;;;;;;;;;3.00;2.00;;;;;22.89;54.27;101647.50;2023911;28;2737770;-76
2023/08/13 02:16:13;;;;;;;;;1.00;1.00;;;;;22.91;54.16;101648.28;2008367;28;2735777;-76
2023/08/13 02:17:24;;;;;;;;;2.33;2.00;;;;;22.90;54.55;101645.69;2022100;28;2719050;-76
2023/08/13 02:18:37;;;;;;;;;2.50;1.17;;;;;22.91;54.65;101648.28;2004918;27;2739853;-76
2023/08/13 02:19:48;;;;;;;;;3.00;3.00;;;;;22.91;53.72;101648.28;1980759;28;2737773;-75
2023/08/13 02:20:59;;;;;;;;;2.67;1.67;;;;;22.88;53.82;101645.81;2023988;28;2732034;-75
2023/08/13 02:22:10;;;;;;;;;3.33;2.33;;;;;22.84;53.96;101655.03;2020296;28;2739849;-75
2023/08/13 02:23:20;;;;;;;;;4.67;2.00;;;;;22.77;53.69;101646.56;2020427;28;2746256;-74
2023/08/13 02:24:31;;;;;;;;;3.00;3.00;;;;;22.70;53.88;101662.22;2013718;28;2741272;-75
2023/08/13 02:25:43;;;;;;;;;2.00;1.25;;;;;22.65;54.07;101659.00;2027566;28;2723167;-73
2023/08/13 02:26:53;;;;;;;;;4.33;2.00;;;;;22.63;54.13;101662.75;2005300;28;2748219;-74
2023/08/13 02:28:05;;;;;;;;;4.67;4.67;;;;;22.59;55.06;101657.59;2026018;28;2752423;-74
2023/08/13 02:29:15;;;;;;;;;6.33;2.33;;;;;22.57;54.62;101658.69;2015647;28;2749363;-74
2023/08/13 02:30:26;;;;;;;;;2.33;2.33;;;;;22.57;54.05;101656.84;2021575;27;3461745;-74
2023/08/13 02:31:37;;;;;;;;;2.00;2.00;;;;;22.56;55.16;101656.97;2022540;28;2746167;-74
2023/08/13 02:32:48;;;;;;;;;1.67;1.67;;;;;22.56;55.23;101651.59;2022553;28;2733595;-74
2023/08/13 02:33:59;;;;;;;;;3.00;1.67;;;;;22.54;54.85;101645.50;2009652;28;2744107;-74
2023/08/13 02:35:11;;;;;;;;;3.00;3.00;;;;;22.53;54.94;101649.13;2026021;28;2733592;-74
2023/08/13 02:36:21;;;;;;;;;3.00;3.00;;;;;22.52;54.88;101645.59;2000498;27;3455980;-74
2023/08/13 02:37:32;;;;;;;;;4.00;4.00;;;;;22.51;54.90;101648.38;2018180;28;2742992;-74
2023/08/13 02:38:43;;;;;;;;;2.33;2.00;;;;;22.51;54.42;101643.03;2022674;28;2743079;-75
2023/08/13 02:39:54;;;;;;;;;5.33;4.00;;;;;22.50;55.00;101639.50;2015354;28;3467984;-73
2023/08/13 02:41:05;;;;;;;;;5.00;2.67;;;;;22.49;54.71;101633.28;2022687;27;2734763;-73
2023/08/13 02:42:15;;;;;;;;;3.67;3.67;;;;;22.50;54.71;101631.44;2011995;27;2752487;-73
2023/08/13 02:43:31;;;;;;;;;5.00;4.00;;;;;22.51;55.19;101635.84;2014334;28;2747587;-74
2023/08/13 02:44:41;;;;;;;;;6.00;6.00;;;;;22.52;54.76;101629.53;2009011;28;3461695;-74
2023/08/13 02:45:52;;;;;;;;;5.33;4.00;;;;;22.52;54.48;101639.41;2026527;28;2752385;-74
2023/08/13 02:47:03;;;;;;;;;7.67;4.67;;;;;22.51;55.03;101637.69;2021342;27;2742066;-74
2023/08/13 02:48:14;;;;;;;;;6.00;4.00;;;;;22.52;55.11;101632.19;2019227;28;2747266;-74
2023/08/13 02:49:25;;;;;;;;;6.33;4.33;;;;;22.54;54.92;101629.44;2022916;28;3461046;-74
2023/08/13 02:50:36;;;;;;;;;7.00;6.00;;;;;22.54;54.86;101634.78;2023003;28;3463821;-74
2023/08/13 02:51:47;;;;;;;;;4.33;4.33;;;;;22.55;54.91;101637.34;2013707;28;2738905;-74
2023/08/13 02:52:58;;;;;;;;;4.00;4.00;;;;;22.59;54.91;101640.69;2002285;28;2746203;-74
2023/08/13 02:54:09;;;;;;;;;7.50;6.00;;;;;22.62;54.81;101634.25;2015809;28;2748234;-74
2023/08/13 02:55:19;;;;;;;;;5.67;5.67;;;;;22.61;54.65;101630.72;2024346;28;2741972;-74
2023/08/13 02:56:30;;;;;;;;;4.67;4.00;;;;;22.62;55.19;101634.25;2016060;28;3467948;-74
2023/08/13 02:57:42;;;;;;;;;8.00;4.25;;;;;22.62;55.16;101629.72;2032149;28;1824368;-74
2023/08/13 02:58:52;;;;;;;;;6.00;5.00;;;;;22.64;54.86;101641.22;2000543;28;3459616;-74
2023/08/13 03:00:04;;;;;;;;;7.00;7.00;;;;;22.66;54.44;101625.88;2017966;28;2735061;-74
2023/08/13 03:01:15;;;;;;;;;4.67;4.67;;;;;22.66;54.78;101625.88;2010043;28;2745171;-74
2023/08/13 03:02:26;;;;;;;;;5.33;4.00;;;;;22.67;54.90;101624.03;2017846;28;2746558;-74
2023/08/13 03:03:37;;;;;;;;;5.00;4.00;;;;;22.66;54.63;101623.22;2015484;28;3460686;-74
2023/08/13 03:04:47;;;;;;;;;5.00;5.00;;;;;22.65;54.79;101621.47;2017388;28;2743070;-74
2023/08/13 03:05:58;;;;;;;;;6.00;5.00;;;;;22.65;54.65;101621.47;2009890;27;2743290;-74
2023/08/13 03:07:09;;;;;;;;;4.00;4.00;;;;;22.66;55.15;101625.88;2022782;28;1819057;-74
2023/08/13 03:08:20;;;;;;;;;5.00;3.00;;;;;22.68;55.27;101623.94;2000491;28;2746196;-73
2023/08/13 03:09:32;;;;;;;;;7.33;4.00;;;;;22.68;54.22;101623.94;2011581;28;3465883;-74
2023/08/13 03:10:43;;;;;;;;;9.75;5.00;;;;;22.68;54.84;101628.44;2014256;28;1831591;-72
2023/08/13 03:11:54;;;;;;;;;7.00;5.00;;;;;22.70;55.10;101621.19;2016344;28;2746584;-72
2023/08/13 03:13:05;;;;;;;;;5.67;4.33;;;;;22.68;54.51;101618.59;2016581;28;2750353;-72
2023/08/13 03:14:17;;;;;;;;;4.00;3.00;;;;;22.65;54.98;101618.81;2014524;28;2743048;-72
2023/08/13 03:15:27;;;;;;;;;3.33;3.33;;;;;22.64;54.93;101616.25;2002023;28;2754565;-72
2023/08/13 03:16:38;;;;;;;;;4.33;2.67;;;;;22.64;54.94;101618.91;2022602;28;2734625;-72
2023/08/13 03:17:49;;;;;;;;;6.00;4.00;;;;;22.62;55.39;101615.50;2012368;28;2740886;-72
2023/08/13 03:19:00;;;;;;;;;4.67;4.00;;;;;22.59;54.84;101621.94;2013257;28;2750419;-72
2023/08/13 03:20:11;;;;;;;;;5.00;4.33;;;;;22.55;55.29;101623.94;2014173;28;2740886;-72
2023/08/13 03:21:22;;;;;;;;;6.67;4.00;;;;;22.54;55.17;101621.41;2012768;28;3462732;-73
2023/08/13 03:22:32;;;;;;;;;3.67;3.67;;;;;22.54;55.63;101614.22;2008572;28;3465869;-73
2023/08/13 03:23:43;;;;;;;;;5.00;4.00;;;;;22.56;55.66;101614.97;2017171;28;2749290;-73
2023/08/13 03:24:55;;;;;;;;;5.00;3.00;;;;;22.58;55.28;101617.53;2026929;28;2734707;-73
2023/08/13 03:26:05;;;;;;;;;3.33;3.00;;;;;22.57;55.41;101613.16;2009907;28;2750389;-73
2023/08/13 03:27:16;;;;;;;;;4.67;3.67;;;;;22.59;55.24;101613.91;2025478;28;2747222;-72
2023/08/13 03:28:28;;;;;;;;;1.00;1.00;;;;;22.59;55.95;101616.56;2034023;28;2740934;-72
2023/08/13 03:29:41;;;;;;;;;5.00;3.17;;;;;22.61;55.27;101614.63;2025706;28;2731511;-72
2023/08/13 03:31:10;;;;;;;;;2.67;1.00;;;;;22.60;54.88;101620.94;1979889;28;2740994;-73
2023/08/13 03:32:20;;;;;;;;;4.00;2.00;;;;;22.59;55.10;101624.59;2009333;28;2754520;-73
2023/08/13 03:33:31;;;;;;;;;3.00;2.33;;;;;22.55;55.87;101620.41;2024935;27;2754463;-73
2023/08/13 03:34:42;;;;;;;;;7.00;4.00;;;;;22.54;55.75;101621.41;2022459;28;2745160;-72
2023/08/13 03:35:53;;;;;;;;;5.67;3.00;;;;;22.54;56.08;101622.25;2021538;27;2750652;-74
2023/08/13 03:37:04;;;;;;;;;3.67;2.67;;;;;22.56;55.58;101628.34;2010493;28;3454451;-74
2023/08/13 03:38:14;;;;;;;;;3.33;3.00;;;;;22.53;55.98;101630.38;2021784;28;2736799;-73
2023/08/13 03:39:26;;;;;;;;;5.00;3.00;;;;;22.54;56.08;101627.63;2033616;28;2744038;-73
2023/08/13 03:40:39;;;;;;;;;3.33;3.17;;;;;22.57;55.72;101626.53;2012227;27;2730524;-73
2023/08/13 03:41:53;;;;;;;;;3.17;3.17;;;;;22.58;55.40;101623.75;2011595;28;2741970;-72
2023/08/13 03:43:03;;;;;;;;;3.00;3.00;;;;;22.57;56.25;101615.81;1986340;27;3463232;-72
2023/08/13 03:44:14;;;;;;;;;3.00;2.00;;;;;22.58;55.99;101625.56;2018719;28;2746191;-72
2023/08/13 03:45:25;;;;;;;;;5.00;2.00;;;;;22.58;55.41;101615.72;2023119;28;2754538;-72
2023/08/13 03:46:36;;;;;;;;;6.00;3.00;;;;;22.55;56.20;101632.00;2012800;28;3468004;-72
2023/08/13 03:47:47;;;;;;;;;3.67;2.67;;;;;22.55;55.81;101623.09;2019002;28;2734665;-70
2023/08/13 03:48:57;;;;;;;;;3.00;3.00;;;;;22.51;55.20;101626.97;1978362;28;2746115;-70
2023/08/13 03:50:08;;;;;;;;;4.00;3.00;;;;;22.46;55.79;101633.50;2018445;28;2754551;-70
2023/08/13 03:51:21;;;;;;;;;4.20;3.00;;;;;22.42;56.02;101617.75;2034468;28;2739853;-69
2023/08/13 03:52:31;;;;;;;;;9.33;3.00;;;;;22.42;55.19;101618.59;2008395;28;2759767;-69
2023/08/13 03:53:42;;;;;;;;;4.00;2.00;;;;;22.39;55.26;101624.19;2024537;28;3447124;-70
2023/08/13 03:54:53;;;;;;;;;3.67;3.00;;;;;22.35;56.22;101622.66;2023155;28;2738804;-69
2023/08/13 03:56:07;;;;;;;;;6.00;3.00;;;;;22.33;56.21;101613.88;2021148;28;2741986;-70
2023/08/13 03:57:18;;;;;;;;;1.67;1.67;;;;;22.37;56.17;101618.09;2008245;27;2748797;-69
2023/08/13 03:58:30;;;;;;;;;4.33;3.33;;;;;22.43;55.86;101631.03;2022485;28;2748186;-70
2023/08/13 03:59:40;;;;;;;;;4.33;2.33;;;;;22.46;56.21;101617.44;2007976;28;3463779;-70
2023/08/13 04:00:51;;;;;;;;;2.00;2.00;;;;;22.48;56.57;101615.50;2025290;27;2740902;-70
2023/08/13 04:02:03;;;;;;;;;5.50;2.50;;;;;22.51;55.30;101611.75;2032996;28;2737789;-71
2023/08/13 04:03:13;;;;;;;;;4.00;2.00;;;;;22.51;55.70;101616.25;2009587;28;2753491;-71
2023/08/13 04:04:25;;;;;;;;;4.00;4.00;;;;;22.45;55.66;101613.03;2025430;28;2744084;-70
2023/08/13 04:05:35;;;;;;;;;5.67;3.00;;;;;22.44;55.45;101614.00;2009176;28;2734722;-72
2023/08/13 04:06:46;;;;;;;;;2.33;2.33;;;;;22.44;55.97;101615.81;2019356;28;2749317;-73
2023/08/13 04:07:58;;;;;;;;;5.33;3.00;;;;;22.43;55.79;101624.81;2020650;28;2754448;-73
2023/08/13 04:09:09;;;;;;;;;2.00;2.00;;;;;22.40;55.56;101623.22;2001197;28;2741929;-72
2023/08/13 04:10:20;;;;;;;;;3.67;3.00;;;;;22.36;55.90;101630.59;2023489;27;2732629;-74
2023/08/13 04:11:30;;;;;;;;;2.00;2.00;;;;;22.33;56.22;101627.28;1987215;27;2752419;-72
2023/08/13 04:12:41;;;;;;;;;4.33;2.67;;;;;22.33;56.16;101624.59;2025529;28;2748228;-72
2023/08/13 04:13:52;;;;;;;;;3.00;3.00;;;;;22.32;55.85;101625.56;2023040;28;2740871;-73
2023/08/13 04:15:03;;;;;;;;;2.67;2.00;;;;;22.28;55.96;101632.09;2022405;27;3463798;-72
2023/08/13 04:16:14;;;;;;;;;5.00;3.00;;;;;22.26;56.37;101632.22;2011931;28;2743047;-72
2023/08/13 04:17:25;;;;;;;;;3.67;2.67;;;;;22.23;56.16;101630.59;2021319;28;2754603;-72
2023/08/13 04:18:35;;;;;;;;;5.67;3.00;;;;;22.22;56.58;101630.72;2022266;28;2741013;-72
2023/08/13 04:19:46;;;;;;;;;2.00;2.00;;;;;22.21;56.28;101627.16;2022910;28;2752464;-72
2023/08/13 04:20:57;;;;;;;;;3.33;3.00;;;;;22.23;56.77;101621.69;2008601;27;3461715;-72
2023/08/13 04:22:09;;;;;;;;;3.00;3.00;;;;;22.22;56.26;101626.22;2026146;28;2735734;-76
2023/08/13 04:23:19;;;;;;;;;3.67;2.33;;;;;22.22;56.18;101628.91;2000622;28;2750397;-74
2023/08/13 04:24:30;;;;;;;;;1.00;1.00;;;;;22.20;56.26;101628.13;2026518;28;2722148;-74
2023/08/13 04:25:41;;;;;;;;;3.00;3.00;;;;;22.16;56.09;101626.63;1985070;28;2746105;-74
2023/08/13 04:26:52;;;;;;;;;2.00;2.00;;;;;22.12;56.98;101622.47;2009021;28;2748563;-74
2023/08/13 04:28:03;;;;;;;;;2.00;2.00;;;;;22.09;56.92;101623.53;2005312;28;2745093;-74
2023/08/13 04:29:15;;;;;;;;;1.25;1.00;;;;;22.08;56.39;101632.50;2025169;28;2724259;-74
2023/08/13 04:30:28;;;;;;;;;4.33;2.50;;;;;22.04;56.49;101622.97;2002538;28;2728446;-74
2023/08/13 04:31:38;;;;;;;;;2.00;2.00;;;;;22.03;56.53;101627.47;1980897;28;2754548;-74
2023/08/13 04:32:54;;;;;;;;;2.00;2.00;;;;;22.02;57.13;101628.44;2033957;27;2741989;-74
2023/08/13 04:34:07;;;;;;;;;3.50;1.33;;;;;22.02;56.21;101624.91;2037155;27;2733612;-74
2023/08/13 04:35:18;;;;;;;;;4.00;2.33;;;;;21.98;56.45;101621.56;1985151;27;2749352;-75
2023/08/13 04:36:29;;;;;;;;;2.00;2.00;;;;;21.94;56.63;101616.53;2025766;28;2750625;-75
2023/08/13 04:37:40;;;;;;;;;3.33;1.00;;;;;21.91;56.59;101625.63;2019912;28;2735687;-75
2023/08/13 04:38:51;;;;;;;;;3.33;3.00;;;;;21.90;57.02;101629.28;2020763;28;2754537;-75
2023/08/13 04:40:02;;;;;;;;;4.00;3.00;;;;;21.87;57.37;101629.47;2021040;28;2754481;-75
2023/08/13 04:41:12;;;;;;;;;4.67;2.00;;;;;21.88;57.22;101631.16;2009312;28;2754518;-74
2023/08/13 04:42:24;;;;;;;;;4.33;3.00;;;;;21.86;57.17;101627.72;2033617;28;2739832;-75
2023/08/13 04:43:37;;;;;;;;;2.00;2.00;;;;;21.83;57.08;101631.44;2011677;28;2730484;-75
2023/08/13 04:44:50;;;;;;;;;4.17;3.33;;;;;21.78;57.14;101631.75;2010968;28;2745133;-75
2023/08/13 04:46:00;;;;;;;;;6.00;3.00;;;;;21.73;57.05;101633.88;1978784;28;2749314;-74
2023/08/13 04:47:11;;;;;;;;;2.00;2.00;;;;;21.71;57.30;101635.81;2026248;28;2744031;-74
2023/08/13 04:48:40;;;;;;;;;3.00;2.00;;;;;21.71;57.07;101619.75;1998352;27;2743999;-74
2023/08/13 04:49:51;;;;;;;;;4.00;2.33;;;;;21.69;57.58;101629.72;1994989;28;2754506;-74
2023/08/13 04:51:02;;;;;;;;;5.00;3.00;;;;;21.67;56.91;101627.16;2026373;28;2735683;-74
2023/08/13 04:52:15;;;;;;;;;5.67;2.17;;;;;21.67;57.27;101628.97;2003894;28;2739857;-74
2023/08/13 04:53:25;;;;;;;;;3.33;3.00;;;;;21.67;56.95;101628.97;1979482;28;2739451;-74
2023/08/13 04:54:36;;;;;;;;;4.67;3.00;;;;;21.65;57.36;101625.53;2025350;27;2745148;-74
2023/08/13 04:55:48;;;;;;;;;5.00;2.00;;;;;21.63;57.34;101622.94;2013457;28;3465936;-74
2023/08/13 04:57:01;;;;;;;;;1.67;1.67;;;;;21.62;57.04;101629.28;2027904;28;2748212;-74
2023/08/13 04:58:11;;;;;;;;;3.00;3.00;;;;;21.59;57.92;101627.66;1979193;27;2745046;-74
2023/08/13 04:59:22;;;;;;;;;4.67;3.00;;;;;21.59;57.38;101630.31;2026743;28;2733593;-75
2023/08/13 05:00:33;;;;;;;;;5.00;2.00;;;;;21.62;57.79;101625.72;2009299;28;2730474;-74
2023/08/13 05:01:44;;;;;;;;;2.00;2.00;;;;;21.64;57.13;101629.16;2026367;28;2748623;-75
2023/08/13 05:02:55;;;;;;;;;4.00;2.25;;;;;21.63;57.90;101627.47;2034031;28;2731512;-75
2023/08/13 05:04:09;;;;;;;;;4.67;3.00;;;;;21.64;57.61;101626.47;2034231;28;2740937;-75
2023/08/13 05:05:22;;;;;;;;;3.00;3.00;;;;;21.63;57.78;101632.81;2004696;27;2739877;-73
2023/08/13 05:06:32;;;;;;;;;8.00;2.00;;;;;21.61;57.38;101630.22;1984340;27;2736717;-74
2023/08/13 05:07:43;;;;;;;;;4.67;4.00;;;;;21.58;57.49;101631.28;2024747;27;2743055;-73
2023/08/13 05:08:54;;;;;;;;;3.00;3.00;;;;;21.56;57.97;101632.34;2019100;27;2752337;-73
2023/08/13 05:10:05;;;;;;;;;2.00;2.00;;;;;21.55;57.28;101634.19;2022932;28;2752389;-73
2023/08/13 05:11:16;;;;;;;;;3.33;1.67;;;;;21.52;57.82;101631.69;2009638;28;2740367;-73
2023/08/13 05:12:27;;;;;;;;;5.00;3.00;;;;;21.48;57.75;101632.88;2022054;28;2736828;-74
2023/08/13 05:13:38;;;;;;;;;3.75;2.75;;;;;21.47;58.03;101628.47;2033880;28;2741944;-74
2023/08/13 05:14:49;;;;;;;;;2.00;2.00;;;;;21.44;57.80;101634.88;2009004;28;2742994;-74
2023/08/13 05:16:00;;;;;;;;;3.00;2.00;;;;;21.43;58.16;101633.16;2023367;28;2754531;-74
2023/08/13 05:17:21;;;;;;;;;3.33;2.00;;;;;21.42;57.84;101630.56;2022056;28;3460677;-74
2023/08/13 05:18:31;;;;;;;;;2.00;2.00;;;;;21.39;58.10;101628.09;2008800;27;2744055;-75
2023/08/13 05:19:42;;;;;;;;;3.67;3.00;;;;;21.38;58.13;101627.25;2025791;28;2736720;-73
2023/08/13 05:20:53;;;;;;;;;2.00;2.00;;;;;21.39;58.89;101626.28;2022530;28;2750834;-73
2023/08/13 05:22:05;;;;;;;;;2.25;2.00;;;;;21.42;58.85;101627.91;2033588;28;2740910;-74
2023/08/13 05:23:15;;;;;;;;;9.00;2.33;;;;;21.44;57.98;101634.00;2008669;28;2755521;-74
2023/08/13 05:24:26;;;;;;;;;3.00;2.00;;;;;21.47;58.66;101628.47;2022106;28;2754801;-74
2023/08/13 05:25:38;;;;;;;;;3.67;2.00;;;;;21.52;58.33;101629.03;2012585;28;2748305;-75
2023/08/13 05:26:51;;;;;;;;;5.83;4.00;;;;;21.58;58.82;101631.28;2027484;28;2747166;-74
2023/08/13 05:28:02;;;;;;;;;3.00;1.67;;;;;21.63;58.37;101632.81;1976812;27;3448150;-75